x

Halifax Harbour (44258) Weather Station

8:00am - Wed 5th Aug 2015 All times are EDT. -4 hours from GMT.

  • Wind
    16mph
  • Air Temp 65°f
  • Sea Pressure 1009.9mb
  • Halifax Harbour
  • Halifax Harbour

More Historic Weather Station data

Upgrade to MSW Pro to gain access to the past 30 days of data for over 8000 Wavebouys and Weather Stations around the globe.

Join Pro

Comparision Forecast

View Surf forecast
   
Wed 08/05 8:00am  -   -  16
mph
1009.9mb 65f
7:00am 5.5ft 7s 18
mph
1010.4mb 67f
4:00am 4.5ft 8s 16 18 mph 1010.8mb 67f
3:00am 4ft 8s 13 16 mph 1011.6mb 66f
2:00am 4ft 8s 11 13 mph 1012mb 66f
Tue 08/04 9:00pm 3.5ft 7s 13
mph
1012.9mb 67f
6:00pm 3.5ft 8s 13 16 mph 1013mb 66f
4:00pm 3.5ft 8s 16 18 mph 1012.2mb 67f
3:00pm 3.5ft 8s 11 13 mph 1012.9mb 66f
2:00pm 3.5ft 9s 11 13 mph 1013mb 67f
1:00pm 3.5ft 9s 11 13 mph 1013.3mb 67f
12:00pm 3.5ft 9s 11
mph
1013.7mb 67f
10:00am 3.5ft 9s 9
mph
1013.9mb 67f
8:00am 3.5ft 10s 13 16 mph 1014mb 67f
6:00am 3.5ft 8s 13 16 mph 1014mb 68f
4:00am 3ft 8s 16 20 mph 1013.3mb 67f
1:00am  -   -  7
mph
1014.2mb 67f
Mon 08/03 11:00pm 3ft 8s 9
mph
1014.3mb 66f
10:00pm 3ft 8s 7 9 mph 1014.2mb 66f
9:00pm 3ft 8s 11 13 mph 1014.5mb 67f
8:00pm 3ft 8s 9
mph
1013.9mb 67f
6:00pm 3ft 8s 7 9 mph 1014.1mb 67f
5:00pm 3ft 8s 7 9 mph 1014.1mb 67f
3:00pm 3ft 8s 11 13 mph 1014.8mb 67f
2:00pm 3.5ft 9s 13 16 mph 1015mb 66f
1:00pm 3.5ft 9s 11 13 mph 1015mb 66f
12:00pm 3.5ft 8s 13 18 mph 1014.9mb 66f
10:00am 3.5ft 9s 9 11 mph 1015.1mb 65f
9:00am 3.5ft 9s 4 9 mph 1015.3mb 65f
8:00am  -   -  7
mph
- -
7:00am 3.5ft 8s 7 9 mph 1014.8mb 61f
5:00am 3.5ft 8s 9
mph
1014.5mb 63f
4:00am 3.5ft 8s 4 7 mph 1013.6mb 63f
3:00am 3.5ft 10s 2 4 mph 1013.1mb 62f
2:00am 4ft 9s 7 9 mph 1012.9mb 63f
12:00am 4.5ft 10s 2 4 mph 1012.8mb 63f
Sun 08/02 11:00pm 4.5ft 10s 4 7 mph 1012.5mb 63f
4:00pm 4.5ft 10s 11 13 mph 1010.4mb 65f
3:00pm 4.5ft 10s 13 16 mph 1010.3mb 65f
1:00pm 4.5ft 11s 13 16 mph 1010.2mb 64f
10:00am 4.5ft 11s 11 13 mph 1009.4mb 61f
9:00am 4.5ft 10s 13
mph
1009.5mb 60f
8:00am 4.5ft 10s 11 13 mph 1009.1mb 60f
5:00am 4.5ft 8s 13 18 mph 1007.5mb 61f
2:00am  -   -  13
mph
1007.1mb 63f
12:00am 4.5ft 9s 11 13 mph 1007.4mb 64f
Sat 08/01 10:00pm  -   -  18
mph
- -
9:00pm 4.5ft 9s 11 13 mph 1007.5mb 66f
6:00pm 3.5ft 8s 13 16 mph 1006.1mb 67f
5:00pm 4ft 8s 7 9 mph 1006.4mb 67f
4:00pm 4.5ft 8s 11 13 mph 1006.6mb 67f
3:00pm 4.5ft 9s 11 13 mph 1007.2mb 66f
2:00pm 4.5ft 8s 13 16 mph 1007.3mb 65f